Red Diamond — A8UM9 — position and weather

sailwx.info

Track history (hours):
 
Tides and Currents Weather Stations Pressure Air Temp Water Temp Dewpoint Dewpoint Depression Visibility Wind Speed Wind Dir Waves Ship Positions

Red Diamond

Last reported at 2017-Dec-11 07:30 UTC. Time now 2017-Dec-11 07:56 UTC.
Position N 44°06' E 028°39'.

Length 190 m; draft 5.7 m.

Type: Ship. MMSI: 636014524.

Date/timePositionNaut miles runAvg speedWind from/ knotsBaromVisibWave heightAir tempDewpointWater temp
2017-Dec-11 07:30N 44°06' E 028°39'0 0.0
2017-Dec-11 07:00N 44°06' E 028°39'0 0.0
2017-Dec-11 06:30N 44°06' E 028°39'0 0.0
2017-Dec-11 06:00N 44°06' E 028°39'0 0.0
2017-Dec-11 05:30N 44°06' E 028°39'0 0.0
2017-Dec-11 05:00N 44°06' E 028°39'0 0.0
2017-Dec-11 04:30N 44°06' E 028°39'0 0.0
2017-Dec-11 04:00N 44°06' E 028°39'0 0.0
2017-Dec-11 03:30N 44°06' E 028°39'0 0.0
2017-Dec-11 03:00N 44°06' E 028°39'0 0.0
2017-Dec-11 02:30N 44°06' E 028°39'0 0.0
2017-Dec-11 02:00N 44°06' E 028°39'0 0.0
2017-Dec-11 01:30N 44°06' E 028°39'0 0.0
2017-Dec-11 01:00N 44°06' E 028°39'0 0.0
2017-Dec-11 00:30N 44°06' E 028°39'0 0.0
2017-Dec-11 00:00N 44°06' E 028°39'0 0.0
2017-Dec-10 23:30N 44°06' E 028°39'0 0.0
2017-Dec-10 23:00N 44°06' E 028°39'0 0.0
2017-Dec-10 22:30N 44°06' E 028°39'0 0.0
2017-Dec-10 22:00N 44°06' E 028°39'0 0.0
2017-Dec-10 21:27N 44°06' E 028°39'0 0.0
2017-Dec-10 21:00N 44°06' E 028°39'0 0.0
2017-Dec-10 20:30N 44°06' E 028°39'0 0.0
2017-Dec-10 20:00N 44°06' E 028°39'0 0.0
2017-Dec-10 19:30N 44°06' E 028°39'0 0.0
2017-Dec-10 19:00N 44°06' E 028°39'0 0.0
2017-Dec-10 18:30N 44°06' E 028°39'0 0.0
2017-Dec-10 18:00N 44°06' E 028°39'0 0.0
2017-Dec-10 17:30N 44°06' E 028°39'0 0.0
2017-Dec-10 17:00N 44°06' E 028°39'0 0.0
2017-Dec-10 16:30N 44°06' E 028°39'0 0.0
2017-Dec-10 16:00N 44°06' E 028°39'0 0.0
2017-Dec-10 15:30N 44°06' E 028°39'0 0.0
2017-Dec-10 15:00N 44°06' E 028°39'0 0.0
2017-Dec-10 14:30N 44°06' E 028°39'0 0.0
2017-Dec-10 14:00N 44°06' E 028°39'0 0.0
2017-Dec-10 13:27N 44°06' E 028°39'0 0.0
2017-Dec-10 13:00N 44°06' E 028°39'0 0.0
2017-Dec-10 12:30N 44°06' E 028°39'0 0.0
2017-Dec-10 12:00N 44°06' E 028°39'0 0.0
2017-Dec-10 11:27N 44°06' E 028°39'0 0.0
2017-Dec-10 11:00N 44°06' E 028°39'0 0.0
2017-Dec-10 10:30N 44°06' E 028°39'0 0.0
2017-Dec-10 10:00N 44°06' E 028°39'0 0.0
2017-Dec-10 09:30N 44°06' E 028°39'0 0.0
2017-Dec-10 09:00N 44°06' E 028°39'0 0.0
2017-Dec-10 08:30N 44°06' E 028°39'0 0.0
2017-Dec-10 08:01N 44°06' E 028°39'1 2.0
2017-Dec-10 07:31N 44°06' E 028°41'2 4.1
2017-Dec-10 07:01N 44°05' E 028°43'3 5.9
2017-Dec-10 06:31N 44°07' E 028°47'1 1.3
2017-Dec-10 06:01N 44°07' E 028°47'0 0.3
2017-Dec-10 05:31N 44°07' E 028°47'2 4.9
2017-Dec-10 05:01N 44°05' E 028°46'3 5.7
2017-Dec-10 04:31N 44°02' E 028°47'5 9.0
2017-Dec-10 04:00N 43°58' E 028°51'4 8.7
2017-Dec-10 03:31N 43°55' E 028°55'4 8.4
2017-Dec-10 03:01N 43°52' E 028°59'4 8.0
2017-Dec-10 02:30N 43°48' E 029°02'4 8.7
2017-Dec-10 02:01N 43°44' E 029°03'2 4.1
2017-Dec-10 01:30N 43°43' E 029°05'4 8.7
2017-Dec-10 01:01N 43°39' E 029°02'714.6
2017-Dec-10 00:30N 43°32' E 029°02'15113.7
2017-Dec-09 13:30N 41°01' E 028°60'4 8.1
2017-Dec-09 12:57N 40°57' E 028°59'5 9.4
2017-Dec-09 12:28N 40°53' E 028°55'5 9.6
2017-Dec-09 11:56N 40°50' E 028°50'1 1.5
2017-Dec-09 11:26N 40°49' E 028°50'3 4.4
2017-Dec-09 10:46N 40°48' E 028°46'1 2.1
2017-Dec-09 10:30N 40°48' E 028°45'236 8.4
2017-Dec-08 06:25N 37°39' E 025°43'4 9.7
2017-Dec-08 06:00N 37°35' E 025°45'510.2
2017-Dec-08 05:30N 37°31' E 025°48'510.0
2017-Dec-08 05:00N 37°26' E 025°51'5 9.9
2017-Dec-08 04:30N 37°22' E 025°54'510.7
2017-Dec-08 04:00N 37°18' E 025°57'510.9
2017-Dec-08 03:30N 37°13' E 026°00'510.9
2017-Dec-08 03:00N 37°08' E 026°04'510.9
2017-Dec-08 02:30N 37°03' E 026°07'510.9
2017-Dec-08 02:00N 36°59' E 026°11'510.7
2017-Dec-08 01:30N 36°55' E 026°15'510.3
2017-Dec-08 01:00N 36°51' E 026°19'510.3
2017-Dec-08 00:30N 36°47' E 026°24'510.2
2017-Dec-08 00:00N 36°43' E 026°28'510.5
2017-Dec-07 23:30N 36°40' E 026°33'510.5
2017-Dec-07 23:00N 36°36' E 026°37'510.4
2017-Dec-07 22:30N 36°32' E 026°41'510.3
2017-Dec-07 22:00N 36°28' E 026°45'710.3
2017-Dec-07 21:19N 36°23' E 026°52'810.3
2017-Dec-07 20:32N 36°17' E 026°58'010.4
2017-Dec-07 20:30N 36°16' E 026°58'  
Track history (hours):
 
Tides and Currents Weather Stations Pressure Air Temp Water Temp Dewpoint Dewpoint Depression Visibility Wind Speed Wind Dir Waves Ship Positions

Red Diamond

Last reported at 2017-Dec-11 07:30 UTC. Time now 2017-Dec-11 07:56 UTC.
Position N 44°06' E 028°39'.

Length 190 m; draft 5.7 m.

Type: Ship. MMSI: 636014524.

Date/timePositionNaut miles runAvg speedWind from/ knotsBaromVisibWave heightAir tempDewpointWater temp
2017-Dec-11 07:30N 44°06' E 028°39'0 0.0
2017-Dec-11 07:00N 44°06' E 028°39'0 0.0
2017-Dec-11 06:30N 44°06' E 028°39'0 0.0
2017-Dec-11 06:00N 44°06' E 028°39'0 0.0
2017-Dec-11 05:30N 44°06' E 028°39'0 0.0
2017-Dec-11 05:00N 44°06' E 028°39'0 0.0
2017-Dec-11 04:30N 44°06' E 028°39'0 0.0
2017-Dec-11 04:00N 44°06' E 028°39'0 0.0
2017-Dec-11 03:30N 44°06' E 028°39'0 0.0
2017-Dec-11 03:00N 44°06' E 028°39'0 0.0
2017-Dec-11 02:30N 44°06' E 028°39'0 0.0
2017-Dec-11 02:00N 44°06' E 028°39'0 0.0
2017-Dec-11 01:30N 44°06' E 028°39'0 0.0
2017-Dec-11 01:00N 44°06' E 028°39'0 0.0
2017-Dec-11 00:30N 44°06' E 028°39'0 0.0
2017-Dec-11 00:00N 44°06' E 028°39'0 0.0
2017-Dec-10 23:30N 44°06' E 028°39'0 0.0
2017-Dec-10 23:00N 44°06' E 028°39'0 0.0
2017-Dec-10 22:30N 44°06' E 028°39'0 0.0
2017-Dec-10 22:00N 44°06' E 028°39'0 0.0
2017-Dec-10 21:27N 44°06' E 028°39'0 0.0
2017-Dec-10 21:00N 44°06' E 028°39'0 0.0
2017-Dec-10 20:30N 44°06' E 028°39'0 0.0
2017-Dec-10 20:00N 44°06' E 028°39'0 0.0
2017-Dec-10 19:30N 44°06' E 028°39'0 0.0
2017-Dec-10 19:00N 44°06' E 028°39'0 0.0
2017-Dec-10 18:30N 44°06' E 028°39'0 0.0
2017-Dec-10 18:00N 44°06' E 028°39'0 0.0
2017-Dec-10 17:30N 44°06' E 028°39'0 0.0
2017-Dec-10 17:00N 44°06' E 028°39'0 0.0
2017-Dec-10 16:30N 44°06' E 028°39'0 0.0
2017-Dec-10 16:00N 44°06' E 028°39'0 0.0
2017-Dec-10 15:30N 44°06' E 028°39'0 0.0
2017-Dec-10 15:00N 44°06' E 028°39'0 0.0
2017-Dec-10 14:30N 44°06' E 028°39'0 0.0
2017-Dec-10 14:00N 44°06' E 028°39'0 0.0
2017-Dec-10 13:27N 44°06' E 028°39'0 0.0
2017-Dec-10 13:00N 44°06' E 028°39'0 0.0
2017-Dec-10 12:30N 44°06' E 028°39'0 0.0
2017-Dec-10 12:00N 44°06' E 028°39'0 0.0
2017-Dec-10 11:27N 44°06' E 028°39'0 0.0
2017-Dec-10 11:00N 44°06' E 028°39'0 0.0
2017-Dec-10 10:30N 44°06' E 028°39'0 0.0
2017-Dec-10 10:00N 44°06' E 028°39'0 0.0
2017-Dec-10 09:30N 44°06' E 028°39'0 0.0
2017-Dec-10 09:00N 44°06' E 028°39'0 0.0
2017-Dec-10 08:30N 44°06' E 028°39'0 0.0
2017-Dec-10 08:01N 44°06' E 028°39'1 2.0
2017-Dec-10 07:31N 44°06' E 028°41'2 4.1
2017-Dec-10 07:01N 44°05' E 028°43'3 5.9
2017-Dec-10 06:31N 44°07' E 028°47'1 1.3
2017-Dec-10 06:01N 44°07' E 028°47'0 0.3
2017-Dec-10 05:31N 44°07' E 028°47'2 4.9
2017-Dec-10 05:01N 44°05' E 028°46'3 5.7
2017-Dec-10 04:31N 44°02' E 028°47'5 9.0
2017-Dec-10 04:00N 43°58' E 028°51'4 8.7
2017-Dec-10 03:31N 43°55' E 028°55'4 8.4
2017-Dec-10 03:01N 43°52' E 028°59'4 8.0
2017-Dec-10 02:30N 43°48' E 029°02'4 8.7
2017-Dec-10 02:01N 43°44' E 029°03'2 4.1
2017-Dec-10 01:30N 43°43' E 029°05'4 8.7
2017-Dec-10 01:01N 43°39' E 029°02'714.6
2017-Dec-10 00:30N 43°32' E 029°02'15113.7
2017-Dec-09 13:30N 41°01' E 028°60'4 8.1
2017-Dec-09 12:57N 40°57' E 028°59'5 9.4
2017-Dec-09 12:28N 40°53' E 028°55'5 9.6
2017-Dec-09 11:56N 40°50' E 028°50'1 1.5
2017-Dec-09 11:26N 40°49' E 028°50'3 4.4
2017-Dec-09 10:46N 40°48' E 028°46'1 2.1
2017-Dec-09 10:30N 40°48' E 028°45'236 8.4
2017-Dec-08 06:25N 37°39' E 025°43'4 9.7
2017-Dec-08 06:00N 37°35' E 025°45'510.2
2017-Dec-08 05:30N 37°31' E 025°48'510.0
2017-Dec-08 05:00N 37°26' E 025°51'5 9.9
2017-Dec-08 04:30N 37°22' E 025°54'510.7
2017-Dec-08 04:00N 37°18' E 025°57'510.9
2017-Dec-08 03:30N 37°13' E 026°00'510.9
2017-Dec-08 03:00N 37°08' E 026°04'510.9
2017-Dec-08 02:30N 37°03' E 026°07'510.9
2017-Dec-08 02:00N 36°59' E 026°11'510.7
2017-Dec-08 01:30N 36°55' E 026°15'510.3
2017-Dec-08 01:00N 36°51' E 026°19'510.3
2017-Dec-08 00:30N 36°47' E 026°24'510.2
2017-Dec-08 00:00N 36°43' E 026°28'510.5
2017-Dec-07 23:30N 36°40' E 026°33'510.5
2017-Dec-07 23:00N 36°36' E 026°37'510.4
2017-Dec-07 22:30N 36°32' E 026°41'510.3
2017-Dec-07 22:00N 36°28' E 026°45'710.3
2017-Dec-07 21:19N 36°23' E 026°52'810.3
2017-Dec-07 20:32N 36°17' E 026°58'010.4
2017-Dec-07 20:30N 36°16' E 026°58'  

Dump ship's entire track history